createdAt,value
2023-03-19T00:01:06.591Z,9.90
2023-03-19T00:03:35.982Z,10.13
2023-03-19T00:06:04.684Z,9.52
2023-03-19T00:08:34.276Z,9.35
2023-03-19T00:11:08.224Z,9.60
2023-03-19T00:13:36.855Z,9.45
2023-03-19T00:16:06.022Z,8.73
2023-03-19T00:18:34.800Z,9.15
2023-03-19T00:21:03.135Z,9.15
2023-03-19T00:23:31.338Z,9.68
2023-03-19T00:26:01.810Z,9.15
2023-03-19T00:28:30.522Z,9.32
2023-03-19T00:30:58.933Z,8.63
2023-03-19T00:33:27.401Z,8.95
2023-03-19T00:35:55.907Z,9.23
2023-03-19T00:38:24.241Z,8.73
2023-03-19T00:40:53.088Z,8.65
2023-03-19T00:43:22.638Z,9.25
2023-03-19T00:45:50.902Z,8.80
2023-03-19T00:48:19.172Z,8.88
2023-03-19T00:50:47.490Z,8.77
2023-03-19T00:53:16.099Z,9.07
2023-03-19T00:55:44.842Z,8.73
2023-03-19T00:58:13.179Z,7.95
2023-03-19T01:00:42.816Z,8.68
2023-03-19T01:03:11.178Z,8.25
2023-03-19T01:05:39.492Z,8.25
2023-03-19T01:08:08.920Z,7.93
2023-03-19T01:10:37.696Z,8.23
2023-03-19T01:13:06.865Z,8.10
2023-03-19T01:15:37.704Z,8.07
2023-03-19T01:18:07.902Z,7.72
2023-03-19T01:20:38.926Z,7.35
2023-03-19T01:23:08.537Z,6.10
2023-03-19T01:25:37.535Z,6.55
2023-03-19T01:28:07.523Z,5.30
2023-03-19T01:30:37.912Z,5.40
2023-03-19T01:33:25.606Z,5.22
2023-03-19T01:36:04.828Z,5.28
2023-03-19T01:38:40.611Z,5.70
2023-03-19T01:41:14.587Z,5.70
2023-03-19T01:43:42.915Z,5.55
2023-03-19T01:46:28.229Z,5.60
2023-03-19T01:49:16.922Z,5.45
2023-03-19T01:51:50.319Z,4.72
2023-03-19T01:54:36.929Z,5.20
2023-03-19T01:57:17.427Z,4.97
2023-03-19T02:00:09.283Z,4.40
2023-03-19T02:02:53.677Z,4.97
2023-03-19T02:05:52.308Z,4.82
2023-03-19T02:08:24.997Z,4.55
2023-03-19T02:10:56.112Z,4.78
2023-03-19T02:13:24.593Z,4.63
2023-03-19T02:15:53.583Z,4.40
2023-03-19T02:18:22.801Z,4.75
2023-03-19T02:21:01.925Z,4.70
2023-03-19T02:23:40.586Z,4.05
2023-03-19T02:26:20.093Z,4.20
2023-03-19T02:28:54.192Z,4.20
2023-03-19T02:31:27.957Z,4.20
2023-03-19T02:34:05.681Z,4.55
2023-03-19T02:36:42.802Z,4.70
2023-03-19T02:39:21.786Z,4.53
2023-03-19T02:41:54.860Z,4.55
2023-03-19T02:44:26.432Z,4.47
2023-03-19T02:46:55.003Z,4.45
2023-03-19T02:49:23.679Z,4.85
2023-03-19T02:51:52.107Z,4.50
2023-03-19T02:54:20.528Z,4.65
2023-03-19T02:56:50.227Z,4.70
2023-03-19T02:59:20.839Z,4.63
2023-03-19T03:01:49.166Z,4.88
2023-03-19T03:04:17.433Z,5.00
2023-03-19T03:06:46.583Z,5.00
2023-03-19T03:09:17.051Z,5.28
2023-03-19T03:11:46.028Z,4.90
2023-03-19T03:14:14.420Z,5.03
2023-03-19T03:16:44.093Z,5.00
2023-03-19T03:19:12.905Z,4.63
2023-03-19T03:21:41.229Z,4.93
2023-03-19T03:24:10.948Z,4.47
2023-03-19T03:26:39.710Z,5.30
2023-03-19T03:29:08.897Z,4.65
2023-03-19T03:31:37.293Z,5.10
2023-03-19T03:34:07.128Z,5.22
2023-03-19T03:36:35.435Z,4.93
2023-03-19T03:39:04.937Z,4.97
2023-03-19T03:41:33.340Z,4.88
2023-03-19T03:44:02.381Z,4.70
2023-03-19T03:46:33.031Z,5.28
2023-03-19T03:49:01.725Z,5.00
2023-03-19T03:51:31.362Z,4.63
2023-03-19T03:53:59.580Z,5.25
2023-03-19T03:56:28.014Z,5.03
2023-03-19T03:58:56.741Z,5.07
2023-03-19T04:01:25.038Z,5.25
2023-03-19T04:03:57.915Z,5.10
2023-03-19T04:06:28.375Z,4.82
2023-03-19T04:09:18.038Z,4.50
2023-03-19T04:11:46.373Z,4.85
2023-03-19T04:14:14.696Z,4.80
2023-03-19T04:16:44.156Z,4.65
2023-03-19T04:19:12.488Z,4.43
2023-03-19T04:21:41.308Z,4.80
2023-03-19T04:24:11.363Z,4.78
2023-03-19T04:26:41.558Z,4.43
2023-03-19T04:29:10.081Z,4.70
2023-03-19T04:31:39.500Z,5.35
2023-03-19T04:34:08.342Z,5.47
2023-03-19T04:36:36.777Z,4.90
2023-03-19T04:39:05.309Z,5.03
2023-03-19T04:41:33.602Z,4.65
2023-03-19T04:44:26.054Z,4.60
2023-03-19T04:46:55.550Z,4.65
2023-03-19T04:49:25.900Z,5.20
2023-03-19T04:51:57.610Z,5.43
2023-03-19T04:54:26.051Z,4.65
2023-03-19T04:56:54.444Z,5.00
2023-03-19T04:59:27.221Z,5.32
2023-03-19T05:01:55.581Z,4.97
2023-03-19T05:04:25.111Z,5.43
2023-03-19T05:06:57.302Z,5.60
2023-03-19T05:09:26.109Z,5.75
2023-03-19T05:11:54.462Z,5.70
2023-03-19T05:14:24.082Z,5.07
2023-03-19T05:17:15.406Z,5.47
2023-03-19T05:20:12.695Z,5.93
2023-03-19T05:22:46.828Z,6.07
2023-03-19T05:25:16.826Z,6.53
2023-03-19T05:27:46.863Z,6.30
2023-03-19T05:30:24.676Z,6.50
2023-03-19T05:33:06.242Z,6.05
2023-03-19T05:35:39.141Z,6.35
2023-03-19T05:38:13.635Z,6.60
2023-03-19T05:40:45.168Z,6.68
2023-03-19T05:43:25.777Z,6.88
2023-03-19T05:45:54.417Z,6.75
2023-03-19T05:48:29.222Z,7.10
2023-03-19T05:50:59.265Z,7.03
2023-03-19T05:53:31.548Z,6.88
2023-03-19T05:56:22.802Z,7.03
2023-03-19T05:59:01.678Z,7.45
2023-03-19T06:01:37.215Z,8.32
2023-03-19T06:04:07.237Z,8.38
2023-03-19T06:06:36.412Z,10.70
2023-03-19T06:09:05.369Z,10.48
2023-03-19T06:11:41.002Z,11.00
2023-03-19T06:14:44.724Z,12.73
2023-03-19T06:17:32.143Z,13.60
2023-03-19T06:20:08.631Z,13.45
2023-03-19T06:22:37.623Z,13.57
2023-03-19T06:25:08.685Z,14.25
2023-03-19T06:27:40.315Z,14.00
2023-03-19T06:30:29.113Z,14.20
2023-03-19T06:33:01.777Z,13.90
2023-03-19T06:35:33.689Z,12.75
2023-03-19T06:38:02.007Z,12.07
2023-03-19T06:40:30.259Z,13.52
2023-03-19T06:42:58.497Z,12.05
2023-03-19T06:45:26.935Z,12.40
2023-03-19T06:47:55.181Z,11.80
2023-03-19T06:50:23.466Z,11.82
2023-03-19T06:52:53.154Z,10.82
2023-03-19T06:55:21.464Z,11.63
2023-03-19T06:57:51.212Z,11.90
2023-03-19T07:00:20.923Z,10.70
2023-03-19T07:02:49.386Z,10.57
2023-03-19T07:05:17.861Z,10.82
2023-03-19T07:07:46.118Z,10.35
2023-03-19T07:10:15.747Z,9.82
2023-03-19T07:12:44.027Z,9.88
2023-03-19T07:15:12.927Z,9.60
2023-03-19T07:17:41.751Z,9.25
2023-03-19T07:20:12.521Z,12.05
2023-03-19T07:22:41.053Z,20.63
2023-03-19T07:25:10.697Z,14.88
2023-03-19T07:27:40.272Z,11.25
2023-03-19T07:30:10.874Z,9.98
2023-03-19T07:32:39.759Z,9.18
2023-03-19T07:35:10.493Z,9.45
2023-03-19T07:37:38.862Z,9.10
2023-03-19T07:40:08.459Z,8.30
2023-03-19T07:42:37.048Z,8.93
2023-03-19T07:45:08.395Z,9.48
2023-03-19T07:47:36.608Z,10.50
2023-03-19T07:50:05.956Z,9.38
2023-03-19T07:52:34.250Z,10.25
2023-03-19T07:55:02.539Z,11.10
2023-03-19T07:57:32.858Z,9.00
2023-03-19T08:00:01.358Z,10.32
2023-03-19T08:02:31.219Z,9.48
2023-03-19T08:05:02.045Z,9.77
2023-03-19T08:07:30.272Z,9.38
2023-03-19T08:09:58.697Z,9.52
2023-03-19T08:12:27.181Z,10.30
2023-03-19T08:14:55.694Z,10.25
2023-03-19T08:17:23.996Z,10.13
2023-03-19T08:19:53.695Z,9.65
2023-03-19T08:22:21.985Z,9.75
2023-03-19T08:24:50.479Z,9.13
2023-03-19T08:27:18.736Z,9.70
2023-03-19T08:29:47.005Z,9.15
2023-03-19T08:32:15.278Z,10.20
2023-03-19T08:34:43.559Z,8.85
2023-03-19T08:37:13.177Z,8.98
2023-03-19T08:39:41.610Z,8.88
2023-03-19T08:42:09.931Z,8.52
2023-03-19T08:44:38.185Z,8.82
2023-03-19T08:47:06.959Z,8.20
2023-03-19T08:49:35.434Z,8.07
2023-03-19T08:52:04.020Z,7.28
2023-03-19T08:54:33.955Z,7.75
2023-03-19T08:57:02.704Z,7.30
2023-03-19T08:59:34.028Z,7.65
2023-03-19T09:02:03.390Z,6.57
2023-03-19T09:04:36.555Z,6.18
2023-03-19T09:07:04.891Z,5.55
2023-03-19T09:09:34.915Z,5.72
2023-03-19T09:12:03.107Z,5.30
2023-03-19T09:14:31.332Z,4.90
2023-03-19T09:16:59.777Z,4.68
2023-03-19T09:19:28.094Z,4.03
2023-03-19T09:21:56.684Z,4.35
2023-03-19T09:24:24.956Z,3.97
2023-03-19T09:26:55.082Z,3.45
2023-03-19T09:29:23.306Z,3.08
2023-03-19T09:31:51.763Z,3.45
2023-03-19T09:34:20.006Z,3.15
2023-03-19T09:36:48.324Z,3.17
2023-03-19T09:39:16.532Z,3.13
2023-03-19T09:42:04.329Z,3.20
2023-03-19T09:44:37.720Z,3.33
2023-03-19T09:47:25.793Z,3.60
2023-03-19T09:49:58.098Z,2.97
2023-03-19T09:52:41.253Z,3.35
2023-03-19T09:55:29.277Z,3.97
2023-03-19T09:58:00.919Z,3.90
2023-03-19T10:00:35.439Z,4.25
2023-03-19T10:03:22.956Z,4.30
2023-03-19T10:06:03.021Z,4.35
2023-03-19T10:08:54.863Z,4.70
2023-03-19T10:11:52.972Z,4.45
2023-03-19T10:14:55.152Z,3.92
2023-03-19T10:17:32.176Z,4.05
2023-03-19T10:20:08.755Z,3.55
2023-03-19T10:22:44.107Z,4.20
2023-03-19T10:25:20.954Z,3.50
2023-03-19T10:27:58.252Z,4.25
2023-03-19T10:30:32.162Z,4.20
2023-03-19T10:33:18.203Z,4.07
2023-03-19T10:35:50.663Z,4.50
2023-03-19T10:38:23.212Z,4.28
2023-03-19T10:41:07.805Z,4.30
2023-03-19T10:43:38.121Z,4.18
2023-03-19T10:46:14.000Z,4.45
2023-03-19T10:48:46.730Z,4.30
2023-03-19T10:51:18.623Z,4.07
2023-03-19T10:53:46.956Z,3.65
2023-03-19T10:56:23.011Z,4.20
2023-03-19T10:59:00.969Z,4.13
2023-03-19T11:01:35.162Z,4.20
2023-03-19T11:04:14.190Z,3.72
2023-03-19T11:06:42.650Z,4.50
2023-03-19T11:09:29.169Z,3.90
2023-03-19T11:12:06.585Z,5.18
2023-03-19T11:14:40.453Z,4.53
2023-03-19T11:17:23.908Z,5.28
2023-03-19T11:19:55.475Z,5.03
2023-03-19T11:22:26.970Z,5.32
2023-03-19T11:24:58.519Z,5.20
2023-03-19T11:27:34.034Z,5.30
2023-03-19T11:30:02.495Z,5.65
2023-03-19T11:33:10.349Z,5.47
2023-03-19T11:35:45.818Z,6.00
2023-03-19T11:38:26.391Z,5.80
2023-03-19T11:41:06.164Z,5.85
2023-03-19T11:43:47.713Z,5.00
2023-03-19T11:46:33.741Z,5.78
2023-03-19T11:49:48.309Z,6.35
2023-03-19T11:52:26.433Z,6.32
2023-03-19T11:55:16.932Z,6.05
2023-03-19T11:58:15.927Z,5.80
2023-03-19T12:00:50.640Z,6.10
2023-03-19T12:04:04.657Z,5.70
2023-03-19T12:06:50.561Z,6.75
2023-03-19T12:09:30.735Z,6.25
2023-03-19T12:12:11.021Z,6.68
2023-03-19T12:14:59.332Z,6.05
2023-03-19T12:18:01.709Z,6.68
2023-03-19T12:20:39.243Z,6.00
2023-03-19T12:23:27.519Z,6.88
2023-03-19T12:26:05.864Z,5.65
2023-03-19T12:28:40.643Z,6.35
2023-03-19T12:31:35.649Z,5.53
2023-03-19T12:34:23.897Z,5.43
2023-03-19T12:36:58.580Z,5.35
2023-03-19T12:39:38.033Z,4.85
2023-03-19T12:42:13.408Z,4.35
2023-03-19T12:44:48.902Z,4.40
2023-03-19T12:47:23.815Z,3.20
2023-03-19T12:49:58.562Z,3.53
2023-03-19T12:52:36.430Z,3.80
2023-03-19T12:55:18.955Z,3.42
2023-03-19T12:57:52.687Z,3.90
2023-03-19T13:00:32.155Z,3.40
2023-03-19T13:03:12.585Z,4.10
2023-03-19T13:05:48.151Z,3.63
2023-03-19T13:08:27.982Z,3.70
2023-03-19T13:11:00.652Z,3.97
2023-03-19T13:13:44.073Z,3.90
2023-03-19T13:16:34.248Z,4.30
2023-03-19T13:19:18.042Z,3.65
2023-03-19T13:21:48.250Z,4.50
2023-03-19T13:24:24.981Z,4.75
2023-03-19T13:26:57.151Z,4.00
2023-03-19T13:29:27.576Z,4.07
2023-03-19T13:32:03.664Z,4.32
2023-03-19T13:34:36.132Z,4.43
2023-03-19T13:37:15.617Z,3.88
2023-03-19T13:39:48.350Z,4.63
2023-03-19T13:42:42.105Z,4.47
2023-03-19T13:45:36.259Z,4.80
2023-03-19T13:48:34.860Z,4.18
2023-03-19T13:51:05.583Z,4.47
2023-03-19T13:53:42.356Z,4.75
2023-03-19T13:56:28.681Z,4.95
2023-03-19T13:59:27.793Z,5.10
2023-03-19T14:01:57.171Z,5.22
2023-03-19T14:04:30.631Z,5.47
2023-03-19T14:07:12.075Z,5.80
2023-03-19T14:09:43.899Z,5.40
2023-03-19T14:12:34.885Z,5.00
2023-03-19T14:15:19.968Z,4.88
2023-03-19T14:17:57.616Z,5.15
2023-03-19T14:20:39.280Z,5.07
2023-03-19T14:23:38.402Z,5.25
2023-03-19T14:26:17.820Z,5.28
2023-03-19T14:29:00.928Z,5.75
2023-03-19T14:31:43.525Z,6.00
2023-03-19T14:34:27.167Z,6.03
2023-03-19T14:37:04.474Z,6.20
2023-03-19T14:39:40.747Z,5.82
2023-03-19T14:42:20.279Z,6.00
2023-03-19T14:45:33.059Z,6.88
2023-03-19T14:48:21.301Z,6.28
2023-03-19T14:51:40.515Z,6.10
2023-03-19T14:54:26.785Z,7.22
2023-03-19T14:56:58.150Z,6.93
2023-03-19T14:59:26.484Z,6.78
2023-03-19T15:01:55.403Z,7.60
2023-03-19T15:04:27.403Z,6.90
2023-03-19T15:07:01.961Z,7.95
2023-03-19T15:09:33.052Z,8.15
2023-03-19T15:12:43.858Z,7.65
2023-03-19T15:15:40.074Z,8.65
2023-03-19T15:18:12.902Z,9.20
2023-03-19T15:20:47.187Z,10.77
2023-03-19T15:23:27.438Z,10.05
2023-03-19T15:26:01.065Z,10.75
2023-03-19T15:28:31.257Z,13.05
2023-03-19T15:31:14.387Z,13.90
2023-03-19T15:33:51.312Z,15.35
2023-03-19T15:36:29.939Z,14.52
2023-03-19T15:39:04.025Z,14.27
2023-03-19T15:41:40.195Z,14.63
2023-03-19T15:44:13.877Z,14.68
2023-03-19T15:46:45.640Z,14.30
2023-03-19T15:49:21.601Z,15.40
2023-03-19T15:51:56.687Z,14.93
2023-03-19T15:54:26.315Z,14.65
2023-03-19T15:56:55.608Z,14.93
2023-03-19T15:59:29.922Z,14.70
2023-03-19T16:02:01.428Z,16.15
2023-03-19T16:04:38.560Z,16.08
2023-03-19T16:07:26.084Z,16.70
2023-03-19T16:09:54.754Z,16.83
2023-03-19T16:12:50.935Z,16.35
2023-03-19T16:15:25.945Z,16.08
2023-03-19T16:17:54.143Z,16.88
2023-03-19T16:20:22.648Z,16.58
2023-03-19T16:22:58.590Z,17.63
2023-03-19T16:25:31.887Z,17.33
2023-03-19T16:28:00.788Z,17.30
2023-03-19T16:30:30.821Z,15.57
2023-03-19T16:33:01.135Z,16.92
2023-03-19T16:35:31.038Z,16.80
2023-03-19T16:38:15.713Z,17.63
2023-03-19T16:40:46.720Z,17.40
2023-03-19T16:43:21.825Z,16.00
2023-03-19T16:46:06.474Z,15.52
2023-03-19T16:48:34.827Z,15.65
2023-03-19T16:51:03.376Z,16.58
2023-03-19T16:53:33.391Z,17.45
2023-03-19T16:56:03.389Z,15.63
2023-03-19T16:58:36.204Z,16.98
2023-03-19T17:01:12.324Z,16.52
2023-03-19T17:03:40.583Z,15.40
2023-03-19T17:06:11.947Z,17.25
2023-03-19T17:08:42.662Z,17.27
2023-03-19T17:11:23.204Z,16.20
2023-03-19T17:13:51.591Z,17.17
2023-03-19T17:16:19.996Z,16.42
2023-03-19T17:18:49.279Z,17.13
2023-03-19T17:21:23.140Z,16.65
2023-03-19T17:23:53.015Z,16.15
2023-03-19T17:26:25.783Z,15.98
2023-03-19T17:28:55.528Z,16.75
2023-03-19T17:31:28.150Z,15.50
2023-03-19T17:34:02.381Z,15.75
2023-03-19T17:36:31.131Z,16.10
2023-03-19T17:39:00.809Z,15.88
2023-03-19T17:41:32.884Z,15.65
2023-03-19T17:44:02.883Z,15.93
2023-03-19T17:46:38.470Z,15.82
2023-03-19T17:49:07.325Z,15.90
2023-03-19T17:51:35.564Z,15.07
2023-03-19T17:54:11.462Z,15.43
2023-03-19T17:56:41.671Z,15.88
2023-03-19T17:59:10.244Z,17.08
2023-03-19T18:01:39.867Z,16.63
2023-03-19T18:04:13.542Z,19.77
2023-03-19T18:06:45.333Z,18.42
2023-03-19T18:09:22.109Z,18.55
2023-03-19T18:11:50.784Z,18.27
2023-03-19T18:14:19.172Z,18.00
2023-03-19T18:16:48.413Z,18.42
2023-03-19T18:19:23.820Z,18.02
2023-03-19T18:21:52.138Z,18.25
2023-03-19T18:24:21.817Z,17.60
2023-03-19T18:26:50.327Z,18.65
2023-03-19T18:29:18.632Z,18.25
2023-03-19T18:31:50.498Z,18.98
2023-03-19T18:34:20.200Z,18.85
2023-03-19T18:36:48.540Z,18.67
2023-03-19T18:39:17.466Z,19.45
2023-03-19T18:41:47.038Z,19.77
2023-03-19T18:44:16.398Z,22.40
2023-03-19T18:46:44.614Z,24.13
2023-03-19T18:49:22.489Z,24.27
2023-03-19T18:52:02.017Z,22.58
2023-03-19T18:54:32.331Z,18.58
2023-03-19T18:57:03.128Z,19.70
2023-03-19T18:59:33.853Z,19.65
2023-03-19T19:02:13.785Z,19.38
2023-03-19T19:04:42.159Z,18.85
2023-03-19T19:07:16.191Z,19.40
2023-03-19T19:09:46.085Z,19.73
2023-03-19T19:12:18.657Z,19.52
2023-03-19T19:14:48.192Z,18.48
2023-03-19T19:17:20.070Z,19.15
2023-03-19T19:19:48.281Z,21.75
2023-03-19T19:22:18.648Z,21.90
2023-03-19T19:24:47.011Z,24.42
2023-03-19T19:27:21.171Z,27.23
2023-03-19T19:29:50.538Z,27.60
2023-03-19T19:32:25.641Z,27.83
2023-03-19T19:34:54.568Z,26.23
2023-03-19T19:37:24.185Z,28.58
2023-03-19T19:39:53.136Z,28.60
2023-03-19T19:42:24.549Z,28.02
2023-03-19T19:44:58.379Z,28.88
2023-03-19T19:47:27.730Z,29.33
2023-03-19T19:49:56.387Z,30.70
2023-03-19T19:52:24.636Z,31.05
2023-03-19T19:54:52.904Z,32.60
2023-03-19T19:57:25.205Z,33.83
2023-03-19T19:59:55.255Z,35.67
2023-03-19T20:02:25.953Z,35.22
2023-03-19T20:04:54.576Z,34.72
2023-03-19T20:07:23.000Z,35.30
2023-03-19T20:09:51.397Z,38.50
2023-03-19T20:12:25.826Z,38.40
2023-03-19T20:14:54.604Z,38.95
2023-03-19T20:17:22.831Z,38.03
2023-03-19T20:19:51.741Z,40.10
2023-03-19T20:22:20.413Z,39.45
2023-03-19T20:24:51.296Z,39.38
2023-03-19T20:27:27.756Z,40.50
2023-03-19T20:29:56.049Z,41.30
2023-03-19T20:32:32.667Z,39.83
2023-03-19T20:35:01.500Z,37.70
2023-03-19T20:37:31.092Z,38.45
2023-03-19T20:39:59.644Z,36.67
2023-03-19T20:42:32.993Z,36.65
2023-03-19T20:45:02.392Z,37.97
2023-03-19T20:47:32.850Z,32.17
2023-03-19T20:50:01.202Z,31.67
2023-03-19T20:52:29.818Z,30.27
2023-03-19T20:54:58.756Z,28.80
2023-03-19T20:57:30.656Z,29.35
2023-03-19T21:00:03.387Z,26.30
2023-03-19T21:02:31.647Z,26.50
2023-03-19T21:04:59.907Z,24.58
2023-03-19T21:07:33.265Z,24.83
2023-03-19T21:10:04.626Z,26.33
2023-03-19T21:12:36.004Z,25.77
2023-03-19T21:15:04.992Z,25.52
2023-03-19T21:17:33.248Z,25.00
2023-03-19T21:20:02.042Z,25.13
2023-03-19T21:22:33.111Z,24.45
2023-03-19T21:25:06.624Z,24.13
2023-03-19T21:27:38.047Z,25.37
2023-03-19T21:30:08.666Z,25.73
2023-03-19T21:32:37.091Z,25.02
2023-03-19T21:35:06.523Z,24.73
2023-03-19T21:37:34.754Z,24.92
2023-03-19T21:40:03.729Z,25.38
2023-03-19T21:42:35.587Z,24.85
2023-03-19T21:45:03.882Z,25.95
2023-03-19T21:47:32.169Z,24.65
2023-03-19T21:50:02.376Z,25.85
2023-03-19T21:52:30.692Z,25.42
2023-03-19T21:54:58.936Z,24.67
2023-03-19T21:57:27.159Z,26.35
2023-03-19T21:59:57.533Z,25.42
2023-03-19T22:02:43.700Z,25.30
2023-03-19T22:05:25.939Z,25.83
2023-03-19T22:07:55.518Z,24.98
2023-03-19T22:10:29.796Z,26.83
2023-03-19T22:12:58.192Z,26.38
2023-03-19T22:15:35.370Z,27.50
2023-03-19T22:18:05.097Z,26.63
2023-03-19T22:20:33.565Z,27.08
2023-03-19T22:23:02.452Z,28.02
2023-03-19T22:25:38.569Z,27.25
2023-03-19T22:28:18.609Z,27.65
2023-03-19T22:30:49.226Z,28.45
2023-03-19T22:33:21.302Z,28.23
2023-03-19T22:35:51.195Z,28.65
2023-03-19T22:38:21.184Z,28.05
2023-03-19T22:40:52.802Z,28.83
2023-03-19T22:43:29.564Z,30.10
2023-03-19T22:46:04.903Z,29.15
2023-03-19T22:48:33.210Z,29.85
2023-03-19T22:51:01.547Z,28.65
2023-03-19T22:53:32.153Z,29.58
2023-03-19T22:56:01.534Z,28.25
2023-03-19T22:58:29.956Z,28.67
2023-03-19T23:00:59.715Z,28.15
2023-03-19T23:03:30.926Z,29.02
2023-03-19T23:06:03.827Z,27.30
2023-03-19T23:08:32.208Z,27.40
2023-03-19T23:11:01.547Z,27.77
2023-03-19T23:13:29.744Z,28.63
2023-03-19T23:16:02.364Z,27.98
2023-03-19T23:18:34.698Z,29.02
2023-03-19T23:21:03.455Z,28.83
2023-03-19T23:23:33.524Z,29.27
2023-03-19T23:26:02.360Z,29.20
2023-03-19T23:28:35.039Z,29.58
2023-03-19T23:31:04.709Z,28.83
2023-03-19T23:33:32.941Z,29.42
2023-03-19T23:36:01.656Z,31.58
2023-03-19T23:38:29.858Z,28.63
2023-03-19T23:40:58.474Z,30.27
2023-03-19T23:43:29.534Z,30.42
2023-03-19T23:45:58.921Z,30.20
2023-03-19T23:48:35.870Z,30.10
2023-03-19T23:51:04.255Z,30.85
2023-03-19T23:53:33.548Z,30.25
2023-03-19T23:56:06.174Z,31.77
2023-03-19T23:58:42.786Z,33.75
